Chesterfield, MO

11:32 PM CDT on August 24, 2016 (GMT -0500)
Spirit Of Saint Louis | | Change Station

Elev 463 ft 38.66 °N, 90.66 °W | Updated 38 minutes ago

Clear
Clear
82 °F
Feels Like 89 °F
N
9
Wind Variable Wind from South

Today
High -- | Low -- °F
--% Chance of Precip.
Yesterday
High -- | Low -- °F
Precip. -- in
Pressure 29.96 in
Visibility 10.0 miles
Clouds Clear
Heat Index 89 °F
Dew Point 75 °F
Humidity 79%
Rainfall 0.01 in
Snow Depth Not available.
6:25 AM 7:43 PM
Waning Gibbous, 50% visible
METAR KSUS 250354Z 19008KT 10SM CLR 28/24 A2999 RMK AO2 SLP145 T02780239
Pressure 29.96 in
Visibility 10.0 miles
Clouds Clear
Heat Index 89 °F
Dew Point 75 °F
Humidity 79%
Rainfall 0.01 in
Snow Depth Not available.
6:25 AM 7:43 PM
Waning Gibbous, 50% visible
METAR KSUS 250354Z 19008KT 10SM CLR 28/24 A2999 RMK AO2 SLP145 T02780239

10-Day Weather Forecast

Almanac

Astronomy

Aug. 24, 2016 Rise Set
Actual Time
Civil Twilight
Nautical Twilight
Astronomical Twilight
Moon
Length of Visible Light
Length of Day
Tomorrow will be .
, % of the Moon is Illuminated

Today's Extremes

State Highs State Lows

Community

WunderPhotos

Upload Photos

1,934,796 photos uploaded!

WunderBlog® & News

Nearby

Air Quality

  Air Quality AQ Index Pollutant
Not available.

Snow Depth

Station Depth Elevation

Earthquake Activity

City Distance Mag. Time & Date
Minimum magnitude displayed is 2.5.

Coastal Water Temperatures

Place Temperature

Stations

Nearby Weather Stations

Station Location Temp. Windchill Dew Point Humidity Wind Precip. Elev Updated Type
                   

Watches & Warnings

There are currently no watches in effect.